createdAt,value
2023-04-15T00:00:33.499Z,6.50
2023-04-15T00:01:33.437Z,7.60
2023-04-15T00:02:33.519Z,7.40
2023-04-15T00:03:33.691Z,7.40
2023-04-15T00:04:33.535Z,6.40
2023-04-15T00:05:33.372Z,6.80
2023-04-15T00:06:33.359Z,6.40
2023-04-15T00:07:33.348Z,7.10
2023-04-15T00:08:33.319Z,6.80
2023-04-15T00:09:33.368Z,7.10
2023-04-15T00:10:33.384Z,7.10
2023-04-15T00:11:33.304Z,6.60
2023-04-15T00:12:33.308Z,6.80
2023-04-15T00:13:33.273Z,7.10
2023-04-15T00:14:33.305Z,6.70
2023-04-15T00:15:33.249Z,6.80
2023-04-15T00:16:33.272Z,7.10
2023-04-15T00:17:33.277Z,6.70
2023-04-15T00:18:33.350Z,6.80
2023-04-15T00:19:33.192Z,7.20
2023-04-15T00:20:33.230Z,7.10
2023-04-15T00:21:33.186Z,7.00
2023-04-15T00:22:33.204Z,6.80
2023-04-15T00:23:33.172Z,7.00
2023-04-15T00:24:33.196Z,7.20
2023-04-15T00:25:33.213Z,6.30
2023-04-15T00:26:33.106Z,6.90
2023-04-15T00:27:33.084Z,7.00
2023-04-15T00:28:33.069Z,6.80
2023-04-15T00:29:33.094Z,7.10
2023-04-15T00:30:33.148Z,6.50
2023-04-15T00:31:33.022Z,6.90
2023-04-15T00:32:33.072Z,7.00
2023-04-15T00:33:33.013Z,7.40
2023-04-15T00:34:33.018Z,7.20
2023-04-15T00:35:33.011Z,7.20
2023-04-15T00:36:33.008Z,7.30
2023-04-15T00:37:32.994Z,7.20
2023-04-15T00:38:33.018Z,7.60
2023-04-15T00:39:32.930Z,7.40
2023-04-15T00:40:32.928Z,7.50
2023-04-15T00:41:32.935Z,7.20
2023-04-15T00:42:32.912Z,7.30
2023-04-15T00:43:32.912Z,7.00
2023-04-15T00:44:32.929Z,7.00
2023-04-15T00:45:32.894Z,7.30
2023-04-15T00:46:32.864Z,7.10
2023-04-15T00:47:32.922Z,7.60
2023-04-15T00:48:32.855Z,7.30
2023-04-15T00:49:32.852Z,7.00
2023-04-15T00:50:32.848Z,7.50
2023-04-15T00:51:32.825Z,7.80
2023-04-15T00:52:32.795Z,7.10
2023-04-15T00:53:32.773Z,7.60
2023-04-15T00:54:32.782Z,7.80
2023-04-15T00:55:32.748Z,7.70
2023-04-15T00:56:32.769Z,8.30
2023-04-15T00:57:32.722Z,7.80
2023-04-15T00:58:32.777Z,7.80
2023-04-15T00:59:32.699Z,7.60
2023-04-15T01:00:32.696Z,8.10
2023-04-15T01:01:32.744Z,8.90
2023-04-15T01:02:32.960Z,8.80
2023-04-15T01:03:32.761Z,8.30
2023-04-15T01:04:32.846Z,8.50
2023-04-15T01:05:32.648Z,8.40
2023-04-15T01:06:32.642Z,8.60
2023-04-15T01:07:32.604Z,9.20
2023-04-15T01:08:32.602Z,9.10
2023-04-15T01:09:32.579Z,8.90
2023-04-15T01:10:32.614Z,8.40
2023-04-15T01:11:32.556Z,8.40
2023-04-15T01:12:32.545Z,8.50
2023-04-15T01:13:32.550Z,9.40
2023-04-15T01:14:32.509Z,9.00
2023-04-15T01:15:32.505Z,9.20
2023-04-15T01:16:32.594Z,9.00
2023-04-15T01:17:32.538Z,9.30
2023-04-15T01:18:32.480Z,8.80
2023-04-15T01:19:32.448Z,8.80
2023-04-15T01:20:32.447Z,9.20
2023-04-15T01:21:32.456Z,8.80
2023-04-15T01:22:32.457Z,9.40
2023-04-15T01:23:32.392Z,9.20
2023-04-15T01:24:32.404Z,9.10
2023-04-15T01:25:32.387Z,8.50
2023-04-15T01:26:32.429Z,9.60
2023-04-15T01:27:32.389Z,8.90
2023-04-15T01:28:32.358Z,8.90
2023-04-15T01:29:32.335Z,9.20
2023-04-15T01:30:32.366Z,9.40
2023-04-15T01:31:32.481Z,9.30
2023-04-15T01:32:32.330Z,8.80
2023-04-15T01:33:32.302Z,9.20
2023-04-15T01:34:35.025Z,8.80
2023-04-15T01:35:32.359Z,9.30
2023-04-15T01:36:32.248Z,9.80
2023-04-15T01:37:32.253Z,8.90
2023-04-15T01:38:32.241Z,9.50
2023-04-15T01:39:32.211Z,8.50
2023-04-15T01:40:32.297Z,9.30
2023-04-15T01:41:32.216Z,9.00
2023-04-15T01:42:32.220Z,8.90
2023-04-15T01:43:32.174Z,9.10
2023-04-15T01:44:32.155Z,9.00
2023-04-15T01:45:32.201Z,8.90
2023-04-15T01:46:32.182Z,9.20
2023-04-15T01:47:32.179Z,8.90
2023-04-15T01:48:32.089Z,8.90
2023-04-15T01:49:32.108Z,8.30
2023-04-15T01:50:32.098Z,8.40
2023-04-15T01:51:32.074Z,8.70
2023-04-15T01:52:32.075Z,8.90
2023-04-15T01:53:32.104Z,9.10
2023-04-15T01:54:32.046Z,8.60
2023-04-15T01:55:32.016Z,8.70
2023-04-15T01:56:32.020Z,8.60
2023-04-15T01:57:31.997Z,8.70
2023-04-15T01:58:31.999Z,8.90
2023-04-15T01:59:32.187Z,8.70
2023-04-15T02:00:31.986Z,9.20
2023-04-15T02:01:32.029Z,8.10
2023-04-15T02:02:32.034Z,9.10
2023-04-15T02:03:32.012Z,7.80
2023-04-15T02:04:31.985Z,7.60
2023-04-15T02:05:31.880Z,7.90
2023-04-15T02:06:31.879Z,8.00
2023-04-15T02:07:31.856Z,8.10
2023-04-15T02:08:31.910Z,8.30
2023-04-15T02:09:31.878Z,8.30
2023-04-15T02:10:31.888Z,8.00
2023-04-15T02:11:31.840Z,8.60
2023-04-15T02:12:31.837Z,8.70
2023-04-15T02:13:31.836Z,8.30
2023-04-15T02:14:31.772Z,8.20
2023-04-15T02:15:31.771Z,7.60
2023-04-15T02:16:31.850Z,8.20
2023-04-15T02:17:31.762Z,7.70
2023-04-15T02:18:31.726Z,8.40
2023-04-15T02:19:31.718Z,8.50
2023-04-15T02:20:31.723Z,8.20
2023-04-15T02:21:31.700Z,8.80
2023-04-15T02:22:31.687Z,8.30
2023-04-15T02:23:31.696Z,8.30
2023-04-15T02:24:31.742Z,8.50
2023-04-15T02:25:31.667Z,9.00
2023-04-15T02:26:31.658Z,8.60
2023-04-15T02:27:31.620Z,8.60
2023-04-15T02:28:31.603Z,8.30
2023-04-15T02:29:31.582Z,8.60
2023-04-15T02:30:31.610Z,7.90
2023-04-15T02:31:31.573Z,8.20
2023-04-15T02:32:31.591Z,8.40
2023-04-15T02:33:31.572Z,9.10
2023-04-15T02:34:31.575Z,8.40
2023-04-15T02:35:31.543Z,9.20
2023-04-15T02:36:31.635Z,8.50
2023-04-15T02:37:31.510Z,8.60
2023-04-15T02:38:31.543Z,8.90
2023-04-15T02:39:31.485Z,8.60
2023-04-15T02:40:31.450Z,8.50
2023-04-15T02:41:31.423Z,8.70
2023-04-15T02:42:31.428Z,9.10
2023-04-15T02:43:31.447Z,8.90
2023-04-15T02:44:31.424Z,9.30
2023-04-15T02:45:31.390Z,9.10
2023-04-15T02:46:31.448Z,8.50
2023-04-15T02:47:31.400Z,8.90
2023-04-15T02:48:31.330Z,8.50
2023-04-15T02:49:31.333Z,8.80
2023-04-15T02:50:31.381Z,8.90
2023-04-15T02:51:31.330Z,8.40
2023-04-15T02:52:31.299Z,8.70
2023-04-15T02:53:31.284Z,8.60
2023-04-15T02:54:31.315Z,8.10
2023-04-15T02:55:31.251Z,8.20
2023-04-15T02:56:31.267Z,8.40
2023-04-15T02:57:31.207Z,8.70
2023-04-15T02:58:31.242Z,8.90
2023-04-15T02:59:31.201Z,8.40
2023-04-15T03:00:31.179Z,8.50
2023-04-15T03:01:31.196Z,8.00
2023-04-15T03:02:31.329Z,8.60
2023-04-15T03:03:31.235Z,8.70
2023-04-15T03:04:31.157Z,8.30
2023-04-15T03:05:31.115Z,9.00
2023-04-15T03:06:31.118Z,8.40
2023-04-15T03:07:31.156Z,8.40
2023-04-15T03:08:31.076Z,8.70
2023-04-15T03:09:31.133Z,8.70
2023-04-15T03:10:31.063Z,8.50
2023-04-15T03:11:31.044Z,8.40
2023-04-15T03:12:31.092Z,7.90
2023-04-15T03:13:31.024Z,9.40
2023-04-15T03:14:31.046Z,9.20
2023-04-15T03:15:31.034Z,8.70
2023-04-15T03:16:31.069Z,9.10
2023-04-15T03:17:30.993Z,8.60
2023-04-15T03:18:30.941Z,8.50
2023-04-15T03:19:30.947Z,8.20
2023-04-15T03:20:30.972Z,8.40
2023-04-15T03:21:30.971Z,7.80
2023-04-15T03:22:30.903Z,8.70
2023-04-15T03:23:30.872Z,8.60
2023-04-15T03:24:30.923Z,8.30
2023-04-15T03:25:30.848Z,8.10
2023-04-15T03:26:30.879Z,8.20
2023-04-15T03:27:30.812Z,8.30
2023-04-15T03:28:30.838Z,9.20
2023-04-15T03:29:30.806Z,8.60
2023-04-15T03:30:30.786Z,7.80
2023-04-15T03:31:30.824Z,8.40
2023-04-15T03:32:30.809Z,8.60
2023-04-15T03:33:30.798Z,9.00
2023-04-15T03:34:30.736Z,8.70
2023-04-15T03:35:30.724Z,9.30
2023-04-15T03:36:30.769Z,8.70
2023-04-15T03:37:30.708Z,8.60
2023-04-15T03:38:30.708Z,9.00
2023-04-15T03:39:30.671Z,9.30
2023-04-15T03:40:30.688Z,9.70
2023-04-15T03:41:30.691Z,8.10
2023-04-15T03:42:30.712Z,8.60
2023-04-15T03:43:30.628Z,8.40
2023-04-15T03:44:30.650Z,8.40
2023-04-15T03:45:30.666Z,8.50
2023-04-15T03:46:30.669Z,9.00
2023-04-15T03:47:30.679Z,9.50
2023-04-15T03:48:30.622Z,8.90
2023-04-15T03:49:30.551Z,9.00
2023-04-15T03:50:30.551Z,8.50
2023-04-15T03:51:30.515Z,8.20
2023-04-15T03:52:30.561Z,8.50
2023-04-15T03:53:30.545Z,8.30
2023-04-15T03:54:30.512Z,8.80
2023-04-15T03:55:30.527Z,8.50
2023-04-15T03:56:30.466Z,8.30
2023-04-15T03:57:30.474Z,8.90
2023-04-15T03:58:30.432Z,9.10
2023-04-15T03:59:30.616Z,8.90
2023-04-15T04:00:30.430Z,8.80
2023-04-15T04:01:30.426Z,8.10
2023-04-15T04:02:30.516Z,8.50
2023-04-15T04:03:30.515Z,8.90
2023-04-15T04:04:30.533Z,8.40
2023-04-15T04:05:30.329Z,8.80
2023-04-15T04:06:30.355Z,9.20
2023-04-15T04:07:30.335Z,8.70
2023-04-15T04:08:30.334Z,8.60
2023-04-15T04:09:30.306Z,8.70
2023-04-15T04:10:30.295Z,8.80
2023-04-15T04:11:30.293Z,8.90
2023-04-15T04:12:30.269Z,9.10
2023-04-15T04:13:30.244Z,9.00
2023-04-15T04:14:30.221Z,9.70
2023-04-15T04:15:30.284Z,9.10
2023-04-15T04:16:30.248Z,9.20
2023-04-15T04:17:30.328Z,9.00
2023-04-15T04:18:30.162Z,9.30
2023-04-15T04:19:30.214Z,9.20
2023-04-15T04:20:30.170Z,9.30
2023-04-15T04:21:30.183Z,9.60
2023-04-15T04:22:30.129Z,9.60
2023-04-15T04:23:38.943Z,9.20
2023-04-15T04:24:37.706Z,9.50
2023-04-15T04:25:30.120Z,10.20
2023-04-15T04:26:30.253Z,9.40
2023-04-15T04:27:30.124Z,9.60
2023-04-15T04:28:30.077Z,13.50
2023-04-15T04:29:30.054Z,9.80
2023-04-15T04:30:30.040Z,10.00
2023-04-15T04:31:30.112Z,9.80
2023-04-15T04:32:30.184Z,9.60
2023-04-15T04:33:30.120Z,9.60
2023-04-15T04:34:30.086Z,9.70
2023-04-15T04:35:30.004Z,9.30
2023-04-15T04:36:29.975Z,9.70
2023-04-15T04:37:29.970Z,9.20
2023-04-15T04:38:29.996Z,9.50
2023-04-15T04:39:29.945Z,10.10
2023-04-15T04:40:29.896Z,9.80
2023-04-15T04:41:30.067Z,9.50
2023-04-15T04:42:30.009Z,9.50
2023-04-15T04:43:29.834Z,9.70
2023-04-15T04:44:29.840Z,9.60
2023-04-15T04:45:29.950Z,10.30
2023-04-15T04:46:29.790Z,9.00
2023-04-15T04:47:29.879Z,9.80
2023-04-15T04:48:29.794Z,9.50
2023-04-15T04:49:29.811Z,10.00
2023-04-15T04:50:29.844Z,9.80
2023-04-15T04:51:29.797Z,10.10
2023-04-15T04:52:29.781Z,9.90
2023-04-15T04:53:29.738Z,9.60
2023-04-15T04:54:29.699Z,9.90
2023-04-15T04:55:29.776Z,9.90
2023-04-15T04:56:29.738Z,9.00
2023-04-15T04:57:29.657Z,10.40
2023-04-15T04:58:29.770Z,10.50
2023-04-15T04:59:29.681Z,10.30
2023-04-15T05:00:29.644Z,10.30
2023-04-15T05:01:29.675Z,10.10
2023-04-15T05:02:29.990Z,10.30
2023-04-15T05:03:29.724Z,9.80
2023-04-15T05:04:29.704Z,10.00
2023-04-15T05:05:29.634Z,10.00
2023-04-15T05:06:29.707Z,10.30
2023-04-15T05:07:29.530Z,10.00
2023-04-15T05:08:29.535Z,10.40
2023-04-15T05:09:29.561Z,10.60
2023-04-15T05:10:29.596Z,10.30
2023-04-15T05:11:29.616Z,10.00
2023-04-15T05:12:29.451Z,10.80
2023-04-15T05:13:29.491Z,9.90
2023-04-15T05:14:29.485Z,10.20
2023-04-15T05:15:29.760Z,10.20
2023-04-15T05:16:29.486Z,10.50
2023-04-15T05:17:29.553Z,10.30
2023-04-15T05:18:29.482Z,10.30
2023-04-15T05:19:29.377Z,10.90
2023-04-15T05:20:29.390Z,11.10
2023-04-15T05:21:29.407Z,11.00
2023-04-15T05:22:29.311Z,11.00
2023-04-15T05:23:29.319Z,10.70
2023-04-15T05:24:29.301Z,10.60
2023-04-15T05:25:29.361Z,11.20
2023-04-15T05:26:29.259Z,11.20
2023-04-15T05:27:29.277Z,10.80
2023-04-15T05:28:29.309Z,10.70
2023-04-15T05:29:29.297Z,12.00
2023-04-15T05:30:29.259Z,11.80
2023-04-15T05:31:29.304Z,11.80
2023-04-15T05:32:29.272Z,12.20
2023-04-15T05:33:29.206Z,12.20
2023-04-15T05:34:29.219Z,11.70
2023-04-15T05:35:29.175Z,11.40
2023-04-15T05:36:29.184Z,11.50
2023-04-15T05:37:29.120Z,11.90
2023-04-15T05:38:29.178Z,12.10
2023-04-15T05:39:29.098Z,12.30
2023-04-15T05:40:29.125Z,12.20
2023-04-15T05:41:29.129Z,11.60
2023-04-15T05:42:29.095Z,12.00
2023-04-15T05:43:29.154Z,11.50
2023-04-15T05:44:29.066Z,12.30
2023-04-15T05:45:29.033Z,11.80
2023-04-15T05:46:29.031Z,12.10
2023-04-15T05:47:29.138Z,12.50
2023-04-15T05:48:29.104Z,11.80
2023-04-15T05:49:29.123Z,12.20
2023-04-15T05:50:28.941Z,12.50
2023-04-15T05:51:28.954Z,12.40
2023-04-15T05:52:28.970Z,12.50
2023-04-15T05:53:28.966Z,12.60
2023-04-15T05:54:29.409Z,12.80
2023-04-15T05:55:28.932Z,13.30
2023-04-15T05:56:28.896Z,13.00
2023-04-15T05:57:28.893Z,13.10
2023-04-15T05:58:28.861Z,12.50
2023-04-15T05:59:28.880Z,12.40
2023-04-15T06:00:29.065Z,13.90
2023-04-15T06:01:29.035Z,13.00
2023-04-15T06:02:28.870Z,12.90
2023-04-15T06:03:28.828Z,13.80
2023-04-15T06:04:28.998Z,13.90
2023-04-15T06:05:28.780Z,13.40
2023-04-15T06:06:28.760Z,12.90
2023-04-15T06:07:28.825Z,12.50
2023-04-15T06:08:28.790Z,14.00
2023-04-15T06:09:28.750Z,13.30
2023-04-15T06:10:28.796Z,13.40
2023-04-15T06:11:28.902Z,12.80
2023-04-15T06:12:28.723Z,12.30
2023-04-15T06:13:28.664Z,12.90
2023-04-15T06:14:28.682Z,13.00
2023-04-15T06:15:28.643Z,13.10
2023-04-15T06:16:28.738Z,13.00
2023-04-15T06:17:28.934Z,13.60
2023-04-15T06:18:28.845Z,12.50
2023-04-15T06:19:28.608Z,13.30
2023-04-15T06:20:28.709Z,12.70
2023-04-15T06:21:28.602Z,12.60
2023-04-15T06:22:28.597Z,13.40
2023-04-15T06:23:28.558Z,12.50
2023-04-15T06:24:28.568Z,12.90
2023-04-15T06:25:28.541Z,13.70
2023-04-15T06:26:28.522Z,12.80
2023-04-15T06:27:28.505Z,12.90
2023-04-15T06:28:28.474Z,13.10
2023-04-15T06:29:28.549Z,13.00
2023-04-15T06:30:28.555Z,12.70
2023-04-15T06:31:28.534Z,13.10
2023-04-15T06:32:28.517Z,13.50
2023-04-15T06:33:28.445Z,13.40
2023-04-15T06:34:28.514Z,12.60
2023-04-15T06:35:28.378Z,13.20
2023-04-15T06:36:28.410Z,14.10
2023-04-15T06:37:28.405Z,13.10
2023-04-15T06:38:28.469Z,12.80
2023-04-15T06:39:28.395Z,13.10
2023-04-15T06:40:28.345Z,13.00
2023-04-15T06:41:28.364Z,13.50
2023-04-15T06:42:28.381Z,13.10
2023-04-15T06:43:28.371Z,12.70
2023-04-15T06:44:28.307Z,11.90
2023-04-15T06:45:28.347Z,11.70
2023-04-15T06:46:28.284Z,11.60
2023-04-15T06:47:28.372Z,11.30
2023-04-15T06:48:28.284Z,11.20
2023-04-15T06:50:07.090Z,11.20
2023-04-15T06:50:32.101Z,10.90
2023-04-15T06:51:28.465Z,10.30
2023-04-15T06:52:28.230Z,10.70
2023-04-15T06:53:31.292Z,10.50
2023-04-15T06:54:29.403Z,10.00
2023-04-15T06:55:39.561Z,10.10
2023-04-15T06:56:31.104Z,10.50
2023-04-15T06:57:28.337Z,10.40
2023-04-15T06:58:29.054Z,9.70
2023-04-15T06:59:28.170Z,9.70
2023-04-15T07:00:29.073Z,9.40
2023-04-15T07:01:28.855Z,9.90
2023-04-15T07:02:28.261Z,9.10
2023-04-15T07:03:28.166Z,8.60
2023-04-15T07:04:36.545Z,9.40
2023-04-15T07:05:28.972Z,9.20
2023-04-15T07:06:29.083Z,9.50
2023-04-15T07:07:29.446Z,8.50
2023-04-15T07:08:28.460Z,8.30
2023-04-15T07:09:28.637Z,8.60
2023-04-15T07:10:32.129Z,8.80
2023-04-15T07:11:28.069Z,8.20
2023-04-15T07:12:43.568Z,8.50
2023-04-15T07:13:28.161Z,8.20
2023-04-15T09:01:17.588Z,3.10
2023-04-15T09:02:18.594Z,3.10
2023-04-15T09:03:17.746Z,3.10
2023-04-15T09:04:17.540Z,3.30
2023-04-15T09:05:17.420Z,3.10
2023-04-15T09:06:17.479Z,3.40
2023-04-15T09:07:17.421Z,3.70
2023-04-15T09:08:17.455Z,3.50
2023-04-15T09:09:17.380Z,3.40
2023-04-15T09:10:17.430Z,3.70
2023-04-15T09:11:18.869Z,3.20
2023-04-15T09:12:17.332Z,3.70
2023-04-15T09:13:17.366Z,3.30
2023-04-15T09:14:17.290Z,3.30
2023-04-15T09:15:17.779Z,2.80
2023-04-15T09:16:17.496Z,2.90
2023-04-15T09:17:17.395Z,2.90
2023-04-15T09:18:17.554Z,2.90
2023-04-15T09:19:17.220Z,2.60
2023-04-15T09:20:17.229Z,3.00
2023-04-15T09:21:17.195Z,2.50
2023-04-15T09:22:17.184Z,2.40
2023-04-15T09:23:17.375Z,2.80
2023-04-15T09:24:17.171Z,2.60
2023-04-15T09:25:17.164Z,2.80
2023-04-15T09:26:17.120Z,3.10
2023-04-15T09:27:17.125Z,2.80
2023-04-15T09:28:17.218Z,3.20
2023-04-15T09:29:17.133Z,3.20
2023-04-15T09:30:17.210Z,3.20
2023-04-15T09:31:17.142Z,3.30
2023-04-15T09:32:17.080Z,3.30
2023-04-15T09:33:17.070Z,3.40
2023-04-15T09:34:17.012Z,3.80
2023-04-15T09:35:17.051Z,4.10
2023-04-15T09:36:17.063Z,4.10
2023-04-15T09:37:29.089Z,3.90
2023-04-15T09:38:17.966Z,4.00
2023-04-15T09:39:16.976Z,4.40
2023-04-15T09:40:17.007Z,4.10
2023-04-15T09:41:16.972Z,4.10
2023-04-15T09:42:16.925Z,4.10
2023-04-15T09:43:16.908Z,3.80
2023-04-15T09:44:16.925Z,4.40
2023-04-15T09:45:16.888Z,4.00
2023-04-15T09:46:16.945Z,3.70
2023-04-15T09:47:16.832Z,3.90
2023-04-15T09:48:16.845Z,3.90
2023-04-15T09:49:16.921Z,4.00
2023-04-15T09:50:16.895Z,4.00
2023-04-15T09:51:16.828Z,3.80
2023-04-15T09:52:16.796Z,3.90
2023-04-15T09:53:16.747Z,3.80
2023-04-15T09:54:16.912Z,4.30
2023-04-15T09:55:16.733Z,3.60
2023-04-15T09:56:16.709Z,3.90
2023-04-15T09:57:16.716Z,3.60
2023-04-15T09:58:16.723Z,3.90
2023-04-15T09:59:16.698Z,3.40
2023-04-15T10:00:16.732Z,3.30
2023-04-15T10:01:16.727Z,2.80
2023-04-15T10:02:16.717Z,2.70
2023-04-15T10:03:16.743Z,2.70
2023-04-15T10:04:16.745Z,3.00
2023-04-15T10:05:16.644Z,3.20
2023-04-15T10:06:16.604Z,2.80
2023-04-15T10:07:16.594Z,3.10
2023-04-15T10:08:16.598Z,2.90
2023-04-15T10:09:16.559Z,3.40
2023-04-15T10:10:16.564Z,3.60
2023-04-15T10:11:16.857Z,3.50
2023-04-15T10:12:16.544Z,4.00
2023-04-15T10:13:16.567Z,3.90
2023-04-15T10:14:16.536Z,3.90
2023-04-15T10:15:16.528Z,3.80
2023-04-15T10:16:16.521Z,4.20
2023-04-15T10:17:16.480Z,4.40
2023-04-15T10:18:16.449Z,4.20
2023-04-15T10:19:16.491Z,4.00
2023-04-15T10:20:16.455Z,4.40
2023-04-15T10:21:16.453Z,3.80
2023-04-15T10:22:16.375Z,3.90
2023-04-15T10:23:16.402Z,3.90
2023-04-15T10:24:16.351Z,3.90
2023-04-15T10:25:16.400Z,3.50
2023-04-15T10:26:16.322Z,3.20
2023-04-15T10:27:16.377Z,3.60
2023-04-15T10:28:17.612Z,3.30
2023-04-15T10:29:16.267Z,3.10
2023-04-15T10:30:16.285Z,3.00
2023-04-15T10:31:16.271Z,3.20
2023-04-15T10:32:16.324Z,3.30
2023-04-15T10:33:16.463Z,3.10
2023-04-15T10:34:16.239Z,3.30
2023-04-15T10:35:16.205Z,3.30
2023-04-15T10:36:16.210Z,3.20
2023-04-15T10:37:16.184Z,3.70
2023-04-15T10:38:16.226Z,3.50
2023-04-15T10:39:16.876Z,3.80
2023-04-15T10:40:16.140Z,3.40
2023-04-15T10:41:17.763Z,3.80
2023-04-15T10:42:16.144Z,3.60
2023-04-15T10:43:16.093Z,3.70
2023-04-15T10:44:16.131Z,4.00
2023-04-15T10:45:16.091Z,4.10
2023-04-15T10:46:16.139Z,3.80
2023-04-15T10:47:16.015Z,3.80
2023-04-15T10:48:16.121Z,4.00
2023-04-15T10:49:16.046Z,4.00
2023-04-15T10:50:16.019Z,3.50
2023-04-15T10:51:16.005Z,3.40
2023-04-15T10:52:15.970Z,3.80
2023-04-15T10:53:15.952Z,4.00
2023-04-15T10:54:17.167Z,3.60
2023-04-15T10:55:16.591Z,3.60
2023-04-15T10:56:15.952Z,3.70
2023-04-15T10:57:15.944Z,3.40
2023-04-15T10:58:15.875Z,3.40
2023-04-15T10:59:15.915Z,3.60
2023-04-15T11:00:15.858Z,3.60
2023-04-15T11:01:15.885Z,4.10
2023-04-15T11:02:15.948Z,4.20
2023-04-15T11:03:16.000Z,4.30
2023-04-15T11:04:15.876Z,4.30
2023-04-15T11:05:15.791Z,3.80
2023-04-15T11:06:15.824Z,3.70
2023-04-15T11:07:15.764Z,3.40
2023-04-15T11:08:15.985Z,3.30
2023-04-15T11:09:15.742Z,3.30
2023-04-15T11:10:15.811Z,3.00
2023-04-15T11:11:15.719Z,3.20
2023-04-15T11:12:15.756Z,3.20
2023-04-15T11:13:15.732Z,3.10
2023-04-15T11:14:15.723Z,2.90
2023-04-15T11:15:15.642Z,3.10
2023-04-15T11:16:15.716Z,3.10
2023-04-15T11:17:15.665Z,3.10
2023-04-15T11:18:15.611Z,3.00
2023-04-15T11:19:15.604Z,2.80
2023-04-15T11:20:15.622Z,2.90
2023-04-15T11:21:15.604Z,3.10
2023-04-15T11:22:15.695Z,2.70
2023-04-15T11:23:15.960Z,3.10
2023-04-15T11:24:15.643Z,3.00
2023-04-15T11:25:15.577Z,2.80
2023-04-15T11:26:15.503Z,2.90
2023-04-15T11:27:15.534Z,2.70
2023-04-15T11:28:15.662Z,2.80
2023-04-15T11:29:15.476Z,2.60
2023-04-15T11:30:15.622Z,2.60
2023-04-15T11:31:15.623Z,3.20
2023-04-15T11:32:15.516Z,3.40
2023-04-15T11:33:15.870Z,3.30
2023-04-15T11:34:15.536Z,3.60
2023-04-15T11:35:15.400Z,3.40
2023-04-15T11:36:15.770Z,3.50
2023-04-15T11:37:15.366Z,3.50
2023-04-15T11:38:15.399Z,3.60
2023-04-15T11:39:15.423Z,3.60
2023-04-15T11:40:15.335Z,3.30
2023-04-15T11:41:15.526Z,3.40
2023-04-15T11:42:15.350Z,3.50
2023-04-15T11:43:15.367Z,3.60
2023-04-15T11:44:15.543Z,3.60
2023-04-15T11:45:15.287Z,3.30
2023-04-15T11:46:15.427Z,3.30
2023-04-15T11:47:15.221Z,3.10
2023-04-15T11:48:15.228Z,3.10
2023-04-15T11:49:15.290Z,3.20
2023-04-15T11:50:15.310Z,3.20
2023-04-15T11:51:15.272Z,3.50
2023-04-15T11:52:15.194Z,3.40
2023-04-15T11:53:15.138Z,3.10
2023-04-15T11:54:15.219Z,3.20
2023-04-15T11:55:15.598Z,3.10
2023-04-15T11:56:15.113Z,3.40
2023-04-15T11:57:15.108Z,2.80
2023-04-15T11:58:16.371Z,3.00
2023-04-15T11:59:15.084Z,3.20
2023-04-15T12:00:15.080Z,2.90
2023-04-15T12:01:15.050Z,3.20
2023-04-15T12:02:15.138Z,3.10
2023-04-15T12:03:15.208Z,2.70
2023-04-15T12:04:15.230Z,2.80
2023-04-15T12:05:15.043Z,2.70
2023-04-15T12:06:15.052Z,2.80
2023-04-15T12:07:14.990Z,3.10
2023-04-15T12:08:14.954Z,2.80
2023-04-15T12:09:15.030Z,2.90
2023-04-15T12:10:15.017Z,2.80
2023-04-15T12:11:14.881Z,2.90
2023-04-15T12:12:14.862Z,2.90
2023-04-15T12:13:14.887Z,2.50
2023-04-15T12:14:14.845Z,2.70
2023-04-15T12:15:14.833Z,2.40
2023-04-15T12:16:14.897Z,2.60
2023-04-15T12:17:14.846Z,2.50
2023-04-15T12:18:14.847Z,2.30
2023-04-15T12:19:14.805Z,2.50
2023-04-15T12:20:14.855Z,2.70
2023-04-15T12:21:14.765Z,2.50
2023-04-15T12:22:14.720Z,2.40
2023-04-15T12:23:14.807Z,2.00
2023-04-15T12:24:14.794Z,2.20
2023-04-15T12:25:14.671Z,2.20
2023-04-15T12:26:14.668Z,1.80
2023-04-15T12:27:14.727Z,2.20
2023-04-15T12:28:14.666Z,2.10
2023-04-15T12:29:14.654Z,2.30
2023-04-15T12:30:14.643Z,2.30
2023-04-15T12:31:14.667Z,2.40
2023-04-15T12:32:14.791Z,2.30
2023-04-15T12:33:14.560Z,2.60
2023-04-15T12:34:14.565Z,2.30
2023-04-15T12:35:14.661Z,2.50
2023-04-15T12:36:14.527Z,2.30
2023-04-15T12:37:14.565Z,2.40
2023-04-15T12:38:15.165Z,2.70
2023-04-15T12:39:14.481Z,2.60
2023-04-15T12:40:14.474Z,2.60
2023-04-15T12:41:14.492Z,2.80
2023-04-15T12:42:14.455Z,2.70
2023-04-15T12:43:14.487Z,2.70
2023-04-15T12:44:14.513Z,2.50
2023-04-15T12:45:14.468Z,2.40
2023-04-15T12:46:14.420Z,2.30
2023-04-15T12:47:14.375Z,2.50
2023-04-15T12:48:14.392Z,2.50
2023-04-15T12:49:14.342Z,2.40
2023-04-15T12:50:14.327Z,2.70
2023-04-15T12:51:14.400Z,2.40
2023-04-15T12:52:14.311Z,2.40
2023-04-15T12:53:14.346Z,2.50
2023-04-15T12:54:14.468Z,2.40
2023-04-15T12:55:14.279Z,2.80
2023-04-15T12:56:14.368Z,2.60
2023-04-15T12:57:14.236Z,2.90
2023-04-15T12:58:14.245Z,3.00
2023-04-15T12:59:15.150Z,2.80
2023-04-15T13:00:14.332Z,2.60
2023-04-15T13:01:14.216Z,2.60
2023-04-15T13:02:14.307Z,2.60
2023-04-15T13:03:14.272Z,2.80
2023-04-15T13:04:14.991Z,3.10
2023-04-15T13:05:15.357Z,3.00
2023-04-15T13:06:18.250Z,3.00
2023-04-15T13:07:14.216Z,3.20
2023-04-15T13:08:14.090Z,2.90
2023-04-15T13:09:14.078Z,2.80
2023-04-15T13:10:14.163Z,2.90
2023-04-15T13:11:14.054Z,2.50
2023-04-15T13:12:14.035Z,2.60
2023-04-15T13:13:14.074Z,3.00
2023-04-15T13:14:13.997Z,2.40
2023-04-15T13:15:13.961Z,2.70
2023-04-15T13:16:14.038Z,2.40
2023-04-15T13:17:13.975Z,2.90
2023-04-15T13:18:13.943Z,2.80
2023-04-15T13:19:13.928Z,2.90
2023-04-15T13:20:13.936Z,2.50
2023-04-15T13:21:13.893Z,2.60
2023-04-15T13:22:13.930Z,2.40
2023-04-15T13:23:13.920Z,2.50
2023-04-15T13:24:13.928Z,2.60
2023-04-15T13:25:13.868Z,2.90
2023-04-15T13:26:13.821Z,2.80
2023-04-15T13:27:13.843Z,2.70
2023-04-15T13:28:13.787Z,3.00
2023-04-15T13:29:13.905Z,2.70
2023-04-15T13:30:13.795Z,2.80
2023-04-15T13:31:13.760Z,2.70
2023-04-15T13:32:13.724Z,2.40
2023-04-15T13:33:13.728Z,2.60
2023-04-15T13:34:13.736Z,2.80
2023-04-15T13:35:13.726Z,2.50
2023-04-15T13:36:13.708Z,2.40
2023-04-15T13:37:13.692Z,2.40
2023-04-15T13:38:13.672Z,2.80
2023-04-15T13:39:13.637Z,2.80
2023-04-15T13:40:13.620Z,2.60
2023-04-15T13:41:13.616Z,2.40
2023-04-15T13:42:13.616Z,2.30
2023-04-15T13:43:13.617Z,2.30
2023-04-15T13:44:13.648Z,2.40
2023-04-15T13:45:13.588Z,2.20
2023-04-15T13:46:13.660Z,2.40
2023-04-15T13:47:13.604Z,2.10
2023-04-15T13:48:13.496Z,2.10
2023-04-15T13:49:16.102Z,2.20
2023-04-15T13:50:22.335Z,2.10
2023-04-15T13:51:13.512Z,2.10
2023-04-15T13:52:13.588Z,2.00
2023-04-15T13:53:13.457Z,1.90
2023-04-15T13:54:13.489Z,2.30
2023-04-15T13:55:19.884Z,2.00
2023-04-15T13:56:14.433Z,2.20
2023-04-15T13:57:13.459Z,2.00
2023-04-15T13:58:13.379Z,2.10
2023-04-15T13:59:13.441Z,1.90
2023-04-15T14:00:13.378Z,2.10
2023-04-15T14:01:13.397Z,2.30
2023-04-15T14:02:13.489Z,2.10
2023-04-15T14:03:13.612Z,2.00
2023-04-15T14:04:13.388Z,1.90
2023-04-15T14:05:13.378Z,2.00
2023-04-15T14:06:13.260Z,2.30
2023-04-15T14:07:13.281Z,1.80
2023-04-15T14:08:13.353Z,2.10
2023-04-15T14:09:14.097Z,1.80
2023-04-15T14:10:13.228Z,1.70
2023-04-15T14:11:13.230Z,2.00
2023-04-15T14:12:21.007Z,2.00
2023-04-15T14:13:20.872Z,2.00
2023-04-15T14:14:15.230Z,1.80
2023-04-15T14:15:13.207Z,2.00
2023-04-15T14:16:13.207Z,1.60
2023-04-15T14:17:13.119Z,2.00
2023-04-15T14:18:13.145Z,1.90
2023-04-15T14:19:13.357Z,1.90
2023-04-15T14:20:14.498Z,1.70
2023-04-15T14:21:13.057Z,1.90
2023-04-15T14:22:13.497Z,1.80
2023-04-15T14:23:13.077Z,2.10
2023-04-15T14:24:13.052Z,2.00
2023-04-15T14:25:23.130Z,2.00
2023-04-15T14:26:14.224Z,1.80
2023-04-15T14:27:13.373Z,2.00
2023-04-15T14:28:13.032Z,2.10
2023-04-15T14:29:12.996Z,1.60
2023-04-15T14:30:12.935Z,1.60
2023-04-15T14:31:13.041Z,2.20
2023-04-15T14:32:13.080Z,1.80
2023-04-15T14:33:12.868Z,1.70
2023-04-15T14:34:12.890Z,1.80
2023-04-15T14:35:12.848Z,1.90
2023-04-15T14:36:12.872Z,1.80
2023-04-15T14:37:12.788Z,1.80
2023-04-15T14:38:12.842Z,1.70
2023-04-15T14:39:12.776Z,1.90
2023-04-15T14:40:12.749Z,2.10
2023-04-15T14:41:12.728Z,2.00
2023-04-15T14:42:12.753Z,1.90
2023-04-15T14:43:12.699Z,2.00
2023-04-15T14:44:12.672Z,1.90
2023-04-15T14:45:12.751Z,2.00
2023-04-15T14:46:12.723Z,2.00
2023-04-15T14:47:12.662Z,2.00
2023-04-15T14:48:12.895Z,2.10
2023-04-15T14:49:12.747Z,2.20
2023-04-15T14:50:12.631Z,1.80
2023-04-15T14:51:12.644Z,1.80
2023-04-15T14:52:12.587Z,2.40
2023-04-15T14:53:12.573Z,1.90
2023-04-15T14:54:12.584Z,2.30
2023-04-15T14:55:12.631Z,2.00
2023-04-15T14:56:12.524Z,1.90
2023-04-15T14:57:12.511Z,1.80
2023-04-15T14:58:12.524Z,2.00
2023-04-15T14:59:12.558Z,1.90
2023-04-15T15:00:15.815Z,1.90
2023-04-15T15:01:12.500Z,2.20